Route Details

Aircraft Information
Group: North America Fleet
Types: B738, B752, B762, B763
Route Data
Distance: 2071nm
Duration: 0h 00m
Origin METAR: KSMF 132353Z 10006KT 10SM BKN060 OVC075 09/06 A2998 RMK AO2 RAE51 SLP150 P0002 60032 T00890061 10089 20083 51002
Dest. METAR: KLAL 132350Z 12004KT 10SM SKC 24/04 A3017
Freight Data
(for Apr 14, 2024)
Load Factor:
65%
Manifested Cargo: 64,347lbs
Financial History
Total Freight: 0lbs
Average Load: 0lbs/flt
Fuel Used: 0lbs
Avg. Fuel Used: 0lbs/flt
Fuel Expense: $0
Avg. Fuel Expense: $0
Avg. Fuel Cost: $0/lbs
Total Gross Income: $0
Pilot Pay: $0
Total Expenses: $0
Total Revenue: $0
Average Revenue: $0

Capitol Logistics 201




KSMF
Sacramento International Airport
Sacramento, California
KLAL
Lakeland Linder Regional Airport
Lakeland, Florida

Activity Log

Date Flight Route Aircraft Duration
No Flights Yet